createdAt,value
2022-11-25T00:01:35.085Z,16.60
2022-11-25T00:04:03.260Z,16.60
2022-11-25T00:06:36.001Z,16.60
2022-11-25T00:09:10.433Z,16.60
2022-11-25T00:11:40.564Z,16.60
2022-11-25T00:14:14.360Z,16.60
2022-11-25T00:16:47.730Z,16.70
2022-11-25T00:19:16.867Z,16.70
2022-11-25T00:21:44.353Z,16.70
2022-11-25T00:24:15.207Z,16.70
2022-11-25T00:26:43.034Z,16.70
2022-11-25T00:29:12.352Z,16.80
2022-11-25T00:31:40.904Z,16.80
2022-11-25T00:34:13.534Z,16.80
2022-11-25T00:36:41.489Z,16.80
2022-11-25T00:39:14.895Z,16.80
2022-11-25T00:41:56.144Z,16.80
2022-11-25T00:44:38.583Z,16.80
2022-11-25T00:47:15.391Z,16.80
2022-11-25T00:49:45.674Z,16.80
2022-11-25T00:52:16.740Z,16.80
2022-11-25T00:54:46.268Z,16.90
2022-11-25T00:57:15.447Z,16.90
2022-11-25T00:59:43.270Z,16.90
2022-11-25T01:02:12.204Z,16.90
2022-11-25T01:04:39.944Z,16.90
2022-11-25T01:07:07.912Z,16.90
2022-11-25T01:09:35.999Z,16.90
2022-11-25T01:12:04.685Z,17.00
2022-11-25T01:14:34.130Z,16.90
2022-11-25T01:17:01.834Z,17.00
2022-11-25T01:19:29.311Z,17.00
2022-11-25T01:21:56.963Z,17.00
2022-11-25T01:24:26.408Z,17.00
2022-11-25T01:26:55.079Z,17.00
2022-11-25T01:29:23.631Z,17.00
2022-11-25T01:31:56.751Z,17.00
2022-11-25T01:34:26.831Z,16.90
2022-11-25T01:36:57.871Z,16.90
2022-11-25T01:39:32.121Z,16.90
2022-11-25T01:42:01.593Z,16.90
2022-11-25T01:44:32.101Z,17.00
2022-11-25T01:47:05.689Z,17.00
2022-11-25T01:49:44.855Z,17.00
2022-11-25T01:52:31.941Z,17.00
2022-11-25T01:55:15.836Z,17.10
2022-11-25T01:58:04.730Z,17.00
2022-11-25T02:00:32.837Z,17.10
2022-11-25T02:03:01.425Z,17.10
2022-11-25T02:05:51.244Z,17.00
2022-11-25T02:08:20.160Z,17.00
2022-11-25T02:10:47.704Z,17.00
2022-11-25T02:13:15.913Z,17.10
2022-11-25T02:15:43.550Z,17.20
2022-11-25T02:18:11.416Z,17.20
2022-11-25T02:20:40.314Z,17.20
2022-11-25T02:23:34.481Z,17.20
2022-11-25T02:26:03.116Z,17.20
2022-11-25T02:28:32.932Z,17.20
2022-11-25T02:31:04.129Z,17.20
2022-11-25T02:33:32.648Z,17.20
2022-11-25T02:36:07.130Z,17.20
2022-11-25T02:38:59.197Z,17.20
2022-11-25T02:41:40.033Z,17.20
2022-11-25T02:44:08.431Z,17.20
2022-11-25T02:46:35.951Z,17.20
2022-11-25T02:49:11.556Z,17.20
2022-11-25T02:51:46.904Z,17.20
2022-11-25T02:54:15.873Z,17.20
2022-11-25T02:56:44.206Z,17.30
2022-11-25T02:59:12.405Z,17.20
2022-11-25T03:01:40.781Z,17.20
2022-11-25T03:04:10.491Z,17.30
2022-11-25T03:06:38.637Z,17.30
2022-11-25T03:09:07.458Z,17.20
2022-11-25T03:11:52.944Z,17.30
2022-11-25T03:14:22.494Z,17.30
2022-11-25T03:16:50.293Z,17.20
2022-11-25T03:19:17.735Z,17.20
2022-11-25T03:21:45.582Z,17.20
2022-11-25T03:24:13.064Z,17.30
2022-11-25T03:26:41.027Z,17.20
2022-11-25T03:29:08.722Z,17.20
2022-11-25T03:31:36.702Z,17.20
2022-11-25T03:34:04.090Z,17.20
2022-11-25T03:36:31.975Z,17.40
2022-11-25T03:38:59.672Z,17.40
2022-11-25T03:41:28.088Z,17.40
2022-11-25T03:43:55.686Z,17.40
2022-11-25T03:46:23.890Z,17.40
2022-11-25T03:48:52.176Z,17.40
2022-11-25T03:51:21.349Z,17.40
2022-11-25T03:53:49.485Z,17.40
2022-11-25T03:56:17.518Z,17.30
2022-11-25T03:58:44.951Z,17.30
2022-11-25T04:01:13.898Z,17.40
2022-11-25T04:03:41.252Z,17.40
2022-11-25T04:06:08.951Z,17.40
2022-11-25T04:08:36.866Z,17.40
2022-11-25T04:11:05.650Z,17.40
2022-11-25T04:13:38.724Z,17.40
2022-11-25T04:16:06.475Z,17.40
2022-11-25T04:18:34.004Z,17.40
2022-11-25T04:21:01.581Z,17.40
2022-11-25T04:23:29.117Z,17.40
2022-11-25T04:26:03.048Z,17.40
2022-11-25T04:28:35.695Z,17.40
2022-11-25T04:31:07.641Z,17.40
2022-11-25T04:33:37.875Z,17.40
2022-11-25T04:36:05.940Z,17.40
2022-11-25T04:38:33.507Z,17.40
2022-11-25T04:41:01.967Z,17.40
2022-11-25T04:43:33.129Z,17.40
2022-11-25T04:46:14.037Z,17.40
2022-11-25T04:48:44.472Z,17.40
2022-11-25T04:51:12.291Z,17.40
2022-11-25T04:53:40.391Z,17.40
2022-11-25T04:56:16.751Z,17.40
2022-11-25T04:58:58.351Z,17.40
2022-11-25T05:01:26.262Z,17.40
2022-11-25T05:04:00.282Z,17.40
2022-11-25T05:06:28.983Z,17.40
2022-11-25T05:08:56.748Z,17.40
2022-11-25T05:11:26.787Z,17.40
2022-11-25T05:13:54.127Z,17.40
2022-11-25T05:16:21.945Z,17.40
2022-11-25T05:18:49.313Z,17.40
2022-11-25T05:21:17.589Z,17.40
2022-11-25T05:23:45.746Z,17.50
2022-11-25T05:26:14.552Z,17.50
2022-11-25T05:28:44.495Z,17.50
2022-11-25T05:31:13.328Z,17.50
2022-11-25T05:33:40.900Z,17.50
2022-11-25T05:36:10.991Z,17.50
2022-11-25T05:38:44.772Z,17.50
2022-11-25T05:41:16.273Z,17.50
2022-11-25T05:43:47.125Z,14.20
2022-11-25T05:46:15.415Z,10.50
2022-11-25T05:48:47.900Z,8.90
2022-11-25T05:51:17.204Z,7.90
2022-11-25T05:53:44.781Z,7.20
2022-11-25T05:56:13.080Z,6.90
2022-11-25T05:59:06.925Z,6.60
2022-11-25T06:01:57.357Z,6.30
2022-11-25T06:04:24.985Z,6.10
2022-11-25T06:06:52.882Z,6.10
2022-11-25T06:09:20.875Z,6.00
2022-11-25T06:11:48.652Z,6.00
2022-11-25T06:14:17.934Z,6.00
2022-11-25T06:16:47.790Z,5.90
2022-11-25T06:19:23.828Z,5.80
2022-11-25T06:21:52.109Z,5.80
2022-11-25T06:24:20.145Z,5.80
2022-11-25T06:26:54.140Z,5.80
2022-11-25T06:29:21.776Z,5.80
2022-11-25T06:31:51.190Z,5.80
2022-11-25T06:34:37.120Z,5.80
2022-11-25T06:37:07.519Z,5.80
2022-11-25T06:39:35.621Z,5.80
2022-11-25T06:42:03.386Z,5.80
2022-11-25T06:44:31.065Z,5.80
2022-11-25T06:46:58.922Z,5.80
2022-11-25T06:49:26.675Z,5.80
2022-11-25T06:51:54.329Z,5.80
2022-11-25T06:54:21.802Z,5.90
2022-11-25T06:56:51.980Z,5.80
2022-11-25T06:59:22.838Z,5.80
2022-11-25T07:01:50.960Z,5.90
2022-11-25T07:04:18.659Z,5.90
2022-11-25T07:06:46.371Z,5.90
2022-11-25T07:09:14.015Z,5.90
2022-11-25T07:11:42.331Z,6.00
2022-11-25T07:14:15.810Z,6.00
2022-11-25T07:16:45.593Z,6.00
2022-11-25T07:19:14.864Z,6.00
2022-11-25T07:21:45.711Z,6.00
2022-11-25T07:24:15.749Z,6.00
2022-11-25T07:26:45.290Z,6.00
2022-11-25T07:29:51.984Z,6.10
2022-11-25T07:32:08.719Z,6.10
2022-11-25T07:34:38.611Z,6.10
2022-11-25T07:37:06.559Z,6.10
2022-11-25T07:39:34.878Z,6.10
2022-11-25T07:42:02.852Z,6.10
2022-11-25T07:44:30.496Z,6.20
2022-11-25T07:47:11.808Z,6.10
2022-11-25T07:49:39.493Z,6.20
2022-11-25T07:52:07.286Z,6.20
2022-11-25T07:54:34.972Z,6.20
2022-11-25T07:57:02.753Z,6.20
2022-11-25T07:59:30.541Z,6.20
2022-11-25T08:01:58.414Z,6.20
2022-11-25T08:04:26.102Z,6.30
2022-11-25T08:06:54.143Z,6.30
2022-11-25T08:09:24.189Z,6.30
2022-11-25T08:11:53.006Z,6.30
2022-11-25T08:14:20.593Z,6.30
2022-11-25T08:16:48.432Z,6.30
2022-11-25T08:19:17.546Z,6.30
2022-11-25T08:21:48.164Z,6.30
2022-11-25T08:24:20.057Z,6.30
2022-11-25T08:26:49.137Z,6.30
2022-11-25T08:29:19.189Z,6.40
2022-11-25T08:31:47.517Z,6.40
2022-11-25T08:34:21.013Z,6.40
2022-11-25T08:36:51.163Z,6.40
2022-11-25T08:39:51.606Z,6.40
2022-11-25T08:42:08.832Z,6.50
2022-11-25T08:44:37.043Z,6.50
2022-11-25T08:47:04.712Z,6.50
2022-11-25T08:49:37.511Z,6.50
2022-11-25T08:52:08.369Z,6.50
2022-11-25T08:54:35.776Z,6.60
2022-11-25T08:57:03.859Z,6.60
2022-11-25T08:59:31.656Z,6.70
2022-11-25T09:01:59.822Z,6.70
2022-11-25T09:04:27.277Z,6.80
2022-11-25T09:06:55.044Z,6.90
2022-11-25T09:09:22.384Z,6.90
2022-11-25T09:11:50.131Z,7.00
2022-11-25T09:14:17.708Z,7.00
2022-11-25T09:16:45.428Z,7.00
2022-11-25T09:19:12.983Z,7.10
2022-11-25T09:21:40.958Z,7.20
2022-11-25T09:24:10.016Z,7.20
2022-11-25T09:26:39.962Z,7.20
2022-11-25T09:29:08.170Z,7.30
2022-11-25T09:31:36.107Z,7.40
2022-11-25T09:34:04.270Z,7.40
2022-11-25T09:36:32.156Z,7.40
2022-11-25T09:38:59.765Z,7.50
2022-11-25T09:41:57.634Z,7.50
2022-11-25T09:45:07.095Z,7.50
2022-11-25T09:47:58.585Z,7.50
2022-11-25T09:50:46.356Z,7.60
2022-11-25T09:53:40.363Z,7.60
2022-11-25T09:56:25.976Z,7.70
2022-11-25T09:59:17.135Z,7.80
2022-11-25T10:01:56.099Z,7.80
2022-11-25T10:04:34.118Z,7.80
2022-11-25T10:07:09.769Z,7.90
2022-11-25T10:09:38.015Z,7.90
2022-11-25T10:12:18.044Z,8.00
2022-11-25T10:14:54.176Z,8.00
2022-11-25T10:17:44.935Z,8.00
2022-11-25T10:20:23.454Z,8.00
2022-11-25T10:22:54.445Z,8.00
2022-11-25T10:25:25.801Z,8.00
2022-11-25T10:28:00.735Z,8.00
2022-11-25T10:30:51.180Z,8.10
2022-11-25T10:33:23.566Z,8.00
2022-11-25T10:35:58.420Z,8.00
2022-11-25T10:38:46.774Z,8.00
2022-11-25T10:41:21.248Z,8.00
2022-11-25T10:43:48.850Z,8.00
2022-11-25T10:47:12.441Z,8.00
2022-11-25T10:49:43.929Z,8.00
2022-11-25T10:52:14.558Z,8.00
2022-11-25T10:54:42.481Z,7.90
2022-11-25T10:57:19.332Z,8.00
2022-11-25T10:59:58.939Z,8.00
2022-11-25T11:02:48.589Z,8.10
2022-11-25T11:05:30.077Z,8.20
2022-11-25T11:08:25.658Z,8.30
2022-11-25T11:11:14.311Z,8.40
2022-11-25T11:13:43.192Z,8.50
2022-11-25T11:16:34.184Z,8.60
2022-11-25T11:19:02.468Z,8.60
2022-11-25T11:21:35.887Z,8.70
2022-11-25T11:24:23.752Z,8.80
2022-11-25T11:27:05.164Z,8.80
2022-11-25T11:29:32.937Z,8.90
2022-11-25T11:32:04.774Z,8.90
2022-11-25T11:34:53.049Z,9.00
2022-11-25T11:37:42.137Z,9.20
2022-11-25T11:40:30.810Z,9.20
2022-11-25T11:43:01.042Z,9.20
2022-11-25T11:45:56.771Z,9.30
2022-11-25T11:48:32.913Z,9.30
2022-11-25T11:51:17.226Z,9.40
2022-11-25T11:54:08.243Z,9.40
2022-11-25T11:56:55.252Z,9.40
2022-11-25T11:59:29.566Z,9.40
2022-11-25T12:02:11.399Z,9.20
2022-11-25T12:04:46.704Z,9.20
2022-11-25T12:07:31.416Z,9.20
2022-11-25T12:10:06.294Z,9.40
2022-11-25T12:12:43.965Z,9.50
2022-11-25T12:15:39.140Z,9.60
2022-11-25T12:18:41.799Z,9.60
2022-11-25T12:21:13.300Z,9.70
2022-11-25T12:23:58.121Z,9.70
2022-11-25T12:26:39.750Z,9.80
2022-11-25T12:29:13.788Z,9.80
2022-11-25T12:32:21.759Z,9.80
2022-11-25T12:35:03.100Z,9.80
2022-11-25T12:38:04.655Z,9.90
2022-11-25T12:40:44.791Z,10.00
2022-11-25T12:43:29.156Z,10.00
2022-11-25T12:46:35.747Z,10.10
2022-11-25T12:49:04.264Z,10.00
2022-11-25T12:52:00.672Z,9.90
2022-11-25T12:54:41.124Z,9.80
2022-11-25T12:57:25.964Z,9.70
2022-11-25T13:00:39.885Z,9.70
2022-11-25T13:03:28.633Z,9.70
2022-11-25T13:06:16.795Z,9.80
2022-11-25T13:08:58.998Z,9.80
2022-11-25T13:11:49.711Z,9.70
2022-11-25T13:14:35.002Z,9.60
2022-11-25T13:17:03.421Z,9.50
2022-11-25T13:19:36.852Z,9.40
2022-11-25T13:22:24.458Z,9.40
2022-11-25T13:24:52.258Z,9.20
2022-11-25T13:27:40.404Z,9.20
2022-11-25T13:30:36.339Z,9.00
2022-11-25T13:33:10.197Z,8.90
2022-11-25T13:35:48.336Z,8.80
2022-11-25T13:38:30.844Z,8.80
2022-11-25T13:41:13.773Z,8.60
2022-11-25T13:44:21.468Z,8.60
2022-11-25T13:46:53.420Z,8.50
2022-11-25T13:49:31.553Z,8.40
2022-11-25T13:52:11.554Z,8.30
2022-11-25T13:54:54.159Z,8.20
2022-11-25T13:57:31.697Z,8.20
2022-11-25T14:00:23.057Z,8.20
2022-11-25T14:02:50.874Z,8.10
2022-11-25T14:05:39.837Z,8.10
2022-11-25T14:08:36.638Z,8.00
2022-11-25T14:11:10.111Z,7.90
2022-11-25T14:14:06.011Z,7.80
2022-11-25T14:16:53.951Z,7.80
2022-11-25T14:19:52.740Z,7.70
2022-11-25T14:22:20.326Z,7.60
2022-11-25T14:25:00.623Z,7.60
2022-11-25T14:27:34.256Z,7.50
2022-11-25T14:30:07.042Z,7.50
2022-11-25T14:32:40.571Z,7.40
2022-11-25T14:35:20.884Z,7.40
2022-11-25T14:38:05.146Z,7.30
2022-11-25T14:40:41.872Z,7.20
2022-11-25T14:43:24.519Z,7.20
2022-11-25T14:46:15.686Z,7.20
2022-11-25T14:48:44.921Z,7.00
2022-11-25T14:51:14.284Z,6.90
2022-11-25T14:53:48.775Z,6.90
2022-11-25T14:56:24.062Z,6.80
2022-11-25T14:58:54.430Z,6.70
2022-11-25T15:01:27.690Z,6.60
2022-11-25T15:04:19.318Z,6.60
2022-11-25T15:07:02.150Z,6.50
2022-11-25T15:09:38.993Z,6.40
2022-11-25T15:12:14.123Z,6.30
2022-11-25T15:14:47.745Z,6.30
2022-11-25T15:17:32.091Z,6.20
2022-11-25T15:20:10.764Z,6.20
2022-11-25T15:22:38.711Z,6.10
2022-11-25T15:25:14.609Z,6.10
2022-11-25T15:27:49.581Z,6.00
2022-11-25T15:30:32.394Z,5.90
2022-11-25T15:33:00.853Z,5.90
2022-11-25T15:35:28.603Z,5.80
2022-11-25T15:37:56.834Z,5.80
2022-11-25T15:40:44.414Z,5.70
2022-11-25T15:43:27.497Z,5.60
2022-11-25T15:46:00.471Z,5.60
2022-11-25T15:48:40.889Z,5.50
2022-11-25T15:51:24.913Z,5.50
2022-11-25T15:54:01.988Z,5.40
2022-11-25T15:56:30.651Z,5.30
2022-11-25T15:59:01.752Z,5.30
2022-11-25T16:01:30.506Z,5.30
2022-11-25T16:04:20.145Z,5.30
2022-11-25T16:06:56.717Z,5.10
2022-11-25T16:09:27.509Z,5.20
2022-11-25T16:12:06.237Z,5.10
2022-11-25T16:14:37.255Z,5.00
2022-11-25T16:17:10.838Z,5.10
2022-11-25T16:19:45.997Z,5.10
2022-11-25T16:22:17.503Z,5.10
2022-11-25T16:24:55.961Z,5.00
2022-11-25T16:27:28.276Z,5.00
2022-11-25T16:29:59.265Z,5.00
2022-11-25T16:32:30.793Z,4.90
2022-11-25T16:35:15.052Z,4.80
2022-11-25T16:37:48.452Z,4.70
2022-11-25T16:40:21.702Z,4.70
2022-11-25T16:42:50.399Z,4.60
2022-11-25T16:45:24.145Z,4.50
2022-11-25T16:47:51.691Z,4.50
2022-11-25T16:50:21.304Z,4.50
2022-11-25T16:52:49.841Z,4.50
2022-11-25T16:55:18.793Z,4.40
2022-11-25T16:57:47.023Z,4.40
2022-11-25T17:00:17.297Z,4.30
2022-11-25T17:02:45.582Z,4.20
2022-11-25T17:05:22.605Z,4.30
2022-11-25T17:07:50.740Z,4.20
2022-11-25T17:10:20.132Z,4.10
2022-11-25T17:12:48.578Z,4.10
2022-11-25T17:15:25.298Z,4.10
2022-11-25T17:17:53.357Z,4.10
2022-11-25T17:20:25.013Z,4.00
2022-11-25T17:22:53.804Z,4.00
2022-11-25T17:25:23.720Z,3.90
2022-11-25T17:27:52.342Z,3.90
2022-11-25T17:30:26.383Z,3.90
2022-11-25T17:33:02.967Z,3.90
2022-11-25T17:35:30.740Z,3.90
2022-11-25T17:38:02.158Z,3.80
2022-11-25T17:40:29.839Z,3.90
2022-11-25T17:42:57.549Z,3.80
2022-11-25T17:45:25.404Z,3.80
2022-11-25T17:47:52.849Z,3.70
2022-11-25T17:50:24.096Z,3.70
2022-11-25T17:52:51.918Z,3.70
2022-11-25T17:55:22.011Z,3.70
2022-11-25T17:57:50.320Z,3.70
2022-11-25T18:00:21.343Z,3.60
2022-11-25T18:02:50.114Z,3.60
2022-11-25T18:05:23.941Z,3.60
2022-11-25T18:07:52.170Z,3.60
2022-11-25T18:10:25.099Z,3.50
2022-11-25T18:12:54.949Z,3.50
2022-11-25T18:15:29.816Z,3.50
2022-11-25T18:18:25.434Z,3.50
2022-11-25T18:20:53.686Z,3.50
2022-11-25T18:23:21.380Z,3.40
2022-11-25T18:25:49.578Z,3.50
2022-11-25T18:28:23.573Z,3.40
2022-11-25T18:30:52.540Z,3.40
2022-11-25T18:33:21.373Z,3.30
2022-11-25T18:35:49.207Z,3.30
2022-11-25T18:38:16.690Z,3.30
2022-11-25T18:40:50.215Z,3.30
2022-11-25T18:43:25.098Z,3.20
2022-11-25T18:45:54.559Z,3.30
2022-11-25T18:48:24.495Z,3.30
2022-11-25T18:50:56.121Z,3.30
2022-11-25T18:53:23.744Z,3.40
2022-11-25T18:55:51.605Z,3.40
2022-11-25T18:58:21.957Z,3.40
2022-11-25T19:00:52.282Z,3.40
2022-11-25T19:03:23.000Z,3.30
2022-11-25T19:05:52.439Z,3.30
2022-11-25T19:08:20.628Z,3.40
2022-11-25T19:10:49.016Z,3.40
2022-11-25T19:13:21.650Z,3.50
2022-11-25T19:15:49.573Z,3.50
2022-11-25T19:18:24.112Z,3.60
2022-11-25T19:20:52.215Z,4.10
2022-11-25T19:23:25.478Z,4.70
2022-11-25T19:26:01.837Z,5.30
2022-11-25T19:28:30.557Z,6.00
2022-11-25T19:31:01.009Z,6.50
2022-11-25T19:33:33.462Z,7.00
2022-11-25T19:36:01.651Z,7.50
2022-11-25T19:38:29.842Z,8.10
2022-11-25T19:40:57.740Z,8.50
2022-11-25T19:43:29.167Z,9.00
2022-11-25T19:45:59.478Z,9.40
2022-11-25T19:48:29.837Z,9.90
2022-11-25T19:51:02.187Z,10.20
2022-11-25T19:53:33.828Z,10.50
2022-11-25T19:56:04.906Z,10.80
2022-11-25T19:58:33.780Z,11.10
2022-11-25T20:01:05.894Z,11.40
2022-11-25T20:03:34.760Z,11.60
2022-11-25T20:06:04.414Z,11.80
2022-11-25T20:08:31.887Z,12.00
2022-11-25T20:10:59.787Z,12.20
2022-11-25T20:13:27.474Z,12.40
2022-11-25T20:15:56.145Z,12.50
2022-11-25T20:18:25.953Z,12.70
2022-11-25T20:21:04.858Z,12.90
2022-11-25T20:23:44.212Z,13.00
2022-11-25T20:26:31.302Z,13.10
2022-11-25T20:28:58.813Z,13.30
2022-11-25T20:31:30.573Z,13.50
2022-11-25T20:33:58.458Z,13.50
2022-11-25T20:36:31.943Z,13.60
2022-11-25T20:39:01.685Z,13.80
2022-11-25T20:41:30.660Z,13.90
2022-11-25T20:43:59.551Z,14.00
2022-11-25T20:46:30.362Z,14.10
2022-11-25T20:49:01.269Z,14.20
2022-11-25T20:51:29.384Z,14.30
2022-11-25T20:54:03.033Z,14.40
2022-11-25T20:56:30.757Z,14.50
2022-11-25T20:58:58.527Z,14.60
2022-11-25T21:01:26.434Z,14.70
2022-11-25T21:03:54.292Z,14.80
2022-11-25T21:06:27.643Z,14.80
2022-11-25T21:08:58.390Z,14.90
2022-11-25T21:11:27.947Z,15.00
2022-11-25T21:13:55.593Z,15.00
2022-11-25T21:16:23.481Z,15.10
2022-11-25T21:18:51.235Z,15.20
2022-11-25T21:21:28.818Z,15.20
2022-11-25T21:23:56.636Z,15.30
2022-11-25T21:26:27.753Z,15.40
2022-11-25T21:28:55.563Z,15.40
2022-11-25T21:31:25.289Z,15.50
2022-11-25T21:33:58.162Z,15.50
2022-11-25T21:36:31.637Z,15.50
2022-11-25T21:39:08.696Z,15.60
2022-11-25T21:41:36.350Z,15.60
2022-11-25T21:44:05.889Z,15.60
2022-11-25T21:46:34.239Z,15.70
2022-11-25T21:49:01.966Z,15.80
2022-11-25T21:51:29.726Z,15.80
2022-11-25T21:53:57.141Z,15.80
2022-11-25T21:56:43.444Z,15.90
2022-11-25T21:59:19.544Z,16.00
2022-11-25T22:01:48.013Z,16.00
2022-11-25T22:04:20.987Z,16.00
2022-11-25T22:06:48.802Z,16.00
2022-11-25T22:09:16.411Z,16.10
2022-11-25T22:11:47.792Z,16.10
2022-11-25T22:14:28.988Z,16.10
2022-11-25T22:16:57.584Z,16.20
2022-11-25T22:19:27.833Z,16.20
2022-11-25T22:21:56.073Z,16.20
2022-11-25T22:24:23.695Z,16.20
2022-11-25T22:26:57.717Z,16.30
2022-11-25T22:29:33.114Z,16.30
2022-11-25T22:32:01.859Z,16.40
2022-11-25T22:34:29.612Z,16.40
2022-11-25T22:36:57.182Z,16.40
2022-11-25T22:39:26.438Z,16.40
2022-11-25T22:42:04.311Z,16.40
2022-11-25T22:44:47.758Z,16.50
2022-11-25T22:47:35.072Z,16.50
2022-11-25T22:50:05.822Z,16.50
2022-11-25T22:52:34.840Z,16.50
2022-11-25T22:55:14.386Z,16.60
2022-11-25T22:57:42.739Z,16.60
2022-11-25T23:00:16.428Z,16.60
2022-11-25T23:02:44.550Z,16.70
2022-11-25T23:05:30.581Z,16.70
2022-11-25T23:08:01.454Z,16.70
2022-11-25T23:10:32.556Z,16.70
2022-11-25T23:13:00.093Z,16.70
2022-11-25T23:15:27.776Z,16.70
2022-11-25T23:17:58.233Z,16.70
2022-11-25T23:20:32.256Z,16.80
2022-11-25T23:23:14.815Z,16.80
2022-11-25T23:25:42.909Z,16.80
2022-11-25T23:28:10.932Z,16.80
2022-11-25T23:30:40.940Z,16.80
2022-11-25T23:33:37.104Z,16.80
2022-11-25T23:36:24.475Z,16.80
2022-11-25T23:39:01.516Z,16.80
2022-11-25T23:41:34.082Z,16.90
2022-11-25T23:44:21.719Z,16.90
2022-11-25T23:46:49.247Z,16.90
2022-11-25T23:49:23.790Z,16.90
2022-11-25T23:51:52.542Z,16.90
2022-11-25T23:54:21.704Z,17.00
2022-11-25T23:56:48.955Z,17.00
2022-11-25T23:59:17.361Z,17.00
